Time;durP1;ratioP1;P1;durP2;ratioP2;P2;SDS_P1;SDS_P2;PMS_P1;PMS_P2;Temp;Humidity;BMP_temperature;BMP_pressure;BME280_temperature;BME280_humidity;BME280_pressure;Samples;Min_cycle;Max_cycle;Signal;HPM_P1;HPM_P2
2021/12/20 00:01:50;;;;;;;20.95;8.50;;;;;;;-0.70;97.75;96218.53;5067453;28;20048;-61
2021/12/20 00:04:17;;;;;;;24.90;9.98;;;;;;;-0.75;97.27;96221.38;5067281;28;20177;-63
2021/12/20 00:06:44;;;;;;;24.38;10.18;;;;;;;-0.76;97.35;96225.25;5067380;28;20059;-63
2021/12/20 00:09:10;;;;;;;27.45;10.27;;;;;;;-1.37;97.91;96149.34;5065862;28;20060;-64
2021/12/20 00:11:37;;;;;;;21.25;9.00;;;;;;;-1.09;98.70;96205.03;5067292;28;20052;-63
2021/12/20 00:14:04;;;;;;;29.45;11.48;;;;;;;-1.04;99.13;96196.75;5067957;28;20445;-62
2021/12/20 00:16:31;;;;;;;25.83;10.82;;;;;;;-1.00;100.00;96224.88;5067319;28;20401;-62
2021/12/20 00:18:58;;;;;;;27.60;10.73;;;;;;;-1.32;100.00;96189.94;5067481;28;20058;-63
2021/12/20 00:21:25;;;;;;;64.50;22.48;;;;;;;-0.97;100.00;96221.53;5067179;28;20079;-62
2021/12/20 00:23:52;;;;;;;21.63;9.23;;;;;;;-0.90;99.85;96216.44;5066737;28;20054;-61
2021/12/20 00:26:18;;;;;;;22.48;8.50;;;;;;;-0.90;99.79;96224.59;5066838;28;20512;-61
2021/12/20 00:28:45;;;;;;;24.23;8.68;;;;;;;-1.36;100.00;96161.84;5065442;28;20059;-61
2021/12/20 00:31:12;;;;;;;24.75;8.85;;;;;;;-0.88;99.91;96233.19;5067104;28;20542;-62
2021/12/20 00:33:38;;;;;;;22.98;9.57;;;;;;;-1.89;98.66;96067.81;5067407;28;20103;-62
2021/12/20 00:36:08;;;;;;;16.85;7.50;;;;;;;-0.87;98.67;96240.25;5066842;28;20408;-65
2021/12/20 00:41:23;;;;;;;20.70;7.78;;;;;;;-0.93;99.67;96222.50;5066900;28;20053;-64
2021/12/20 00:43:50;;;;;;;15.18;5.80;;;;;;;-1.07;99.60;96202.78;5066606;28;20056;-63
2021/12/20 00:46:17;;;;;;;14.10;5.60;;;;;;;-0.84;98.98;96273.03;5074142;28;20068;-63
2021/12/20 00:48:44;;;;;;;15.02;5.55;;;;;;;-0.87;98.37;96243.75;5087025;28;20056;-61
2021/12/20 00:51:10;;;;;;;16.50;6.03;;;;;;;-1.16;98.47;96204.69;5086879;28;20450;-64
2021/12/20 00:53:37;;;;;;;9.18;3.78;;;;;;;-0.88;98.21;96238.63;5087065;28;20552;-63
2021/12/20 00:56:04;;;;;;;15.13;6.45;;;;;;;-0.97;97.99;96245.97;5086333;28;20519;-63
2021/12/20 00:58:30;;;;;;;20.27;8.70;;;;;;;-0.99;99.25;96242.75;5086868;28;20051;-63
2021/12/20 01:00:58;;;;;;;27.67;9.88;;;;;;;-1.56;99.34;96164.03;5086442;28;20052;-64
2021/12/20 01:03:27;;;;;;;29.65;13.90;;;;;;;-1.93;99.99;96104.81;5086284;28;20070;-62
2021/12/20 01:05:54;;;;;;;26.63;13.02;;;;;;;-1.64;100.00;96156.66;5086213;28;20044;-63
2021/12/20 01:08:22;;;;;;;30.08;13.57;;;;;;;-1.85;100.00;96106.75;5086249;28;20052;-62
2021/12/20 01:10:52;;;;;;;100.53;30.75;;;;;;;-1.07;100.00;96219.91;5085868;28;20052;-64
2021/12/20 01:13:22;;;;;;;30.17;13.48;;;;;;;-1.05;100.00;96214.97;5086584;28;20095;-61
2021/12/20 01:15:53;;;;;;;16.98;7.50;;;;;;;-1.21;100.00;96221.13;5084690;28;20052;-63
2021/12/20 01:18:21;;;;;;;15.32;5.60;;;;;;;-1.34;100.00;96213.94;5086318;28;20082;-61
2021/12/20 01:20:48;;;;;;;6.07;2.90;;;;;;;-1.40;100.00;96215.16;5086202;28;20146;-63
2021/12/20 01:23:16;;;;;;;10.05;4.07;;;;;;;-1.38;100.00;96208.31;5084769;28;20188;-63
2021/12/20 01:25:43;;;;;;;8.43;3.35;;;;;;;-1.78;100.00;96164.09;5084653;28;20048;-63
2021/12/20 01:28:11;;;;;;;9.00;3.17;;;;;;;-1.34;100.00;96213.94;5086095;28;20547;-63
2021/12/20 01:30:39;;;;;;;9.43;3.85;;;;;;;-1.59;100.00;96170.09;5086005;28;20059;-64
2021/12/20 01:33:09;;;;;;;8.23;3.30;;;;;;;-1.48;100.00;96169.78;5086614;28;20048;-63
2021/12/20 01:35:36;;;;;;;11.63;4.35;;;;;;;-1.53;100.00;96189.72;5084627;28;20052;-63
2021/12/20 01:38:04;;;;;;;7.90;3.95;;;;;;;-1.44;100.00;96159.91;5084593;28;20430;-64
2021/12/20 01:40:31;;;;;;;9.57;3.88;;;;;;;-1.11;100.00;96193.69;5085732;28;20533;-64
2021/12/20 01:42:58;;;;;;;8.25;3.70;;;;;;;-1.02;100.00;96205.34;5085995;28;20509;-61
2021/12/20 01:45:28;;;;;;;46.72;16.83;;;;;;;-0.84;100.00;96198.84;5085362;28;20060;-63
2021/12/20 01:48:04;;;;;;;17.42;7.72;;;;;;;-1.37;100.00;96119.47;5063569;28;20062;-63
2021/12/20 01:53:10;;;;;;;19.70;7.43;;;;;;;-0.74;100.00;96174.03;5065561;28;20158;-63
2021/12/20 01:55:37;;;;;;;21.27;7.38;;;;;;;-0.57;100.00;96217.56;5065295;28;20056;-61
2021/12/20 01:58:04;;;;;;;20.65;8.50;;;;;;;-0.87;100.00;96185.91;5065901;28;20049;-62
2021/12/20 02:00:32;;;;;;;21.65;8.02;;;;;;;-0.63;100.00;96207.94;5065378;28;20431;-63
2021/12/20 02:03:01;;;;;;;23.75;8.30;;;;;;;-0.58;100.00;96200.44;5063921;28;20053;-63
2021/12/20 02:05:50;;;;;;;24.38;9.90;;;;;;;-0.98;100.00;96119.38;5064074;28;20147;-64
2021/12/20 02:08:21;;;;;;;82.55;30.05;;;;;;;-0.65;100.00;96150.41;5065284;28;20052;-63
2021/12/20 02:10:50;;;;;;;49.75;21.02;;;;;;;-0.41;100.00;96195.00;5065003;28;20048;-62
2021/12/20 02:13:17;;;;;;;67.28;27.20;;;;;;;-0.39;100.00;96181.06;5065117;28;20051;-63
2021/12/20 02:15:44;;;;;;;41.35;15.38;;;;;;;-0.55;100.00;96133.75;5064837;28;20500;-63
2021/12/20 02:18:11;;;;;;;27.33;10.05;;;;;;;-0.45;100.00;96209.56;5064774;28;20059;-62
2021/12/20 02:20:38;;;;;;;37.03;14.45;;;;;;;-0.41;100.00;96188.78;5063721;28;20058;-61
2021/12/20 02:23:06;;;;;;;49.78;18.65;;;;;;;-0.36;100.00;96191.31;5065171;28;20521;-60
2021/12/20 02:25:33;;;;;;;32.50;13.68;;;;;;;-0.15;100.00;96214.03;5064750;28;20052;-61
2021/12/20 02:28:07;;;;;;;26.88;10.75;;;;;;;-0.11;100.00;96204.06;5064456;28;20053;-60
2021/12/20 02:30:42;;;;;;;32.22;14.23;;;;;;;-0.42;100.00;96154.53;5063256;28;20236;-60
2021/12/20 02:38:41;;;;;;;28.45;9.70;;;;;;;-0.42;97.01;96132.75;5064657;28;20135;-61
2021/12/20 02:41:11;;;;;;;15.45;5.18;;;;;;;-0.03;96.99;96178.78;5064689;28;20056;-63
2021/12/20 02:43:43;;;;;;;16.45;6.25;;;;;;;0.08;95.53;96188.19;5064328;28;20048;-63
2021/12/20 02:48:56;;;;;;;53.05;17.42;;;;;;;0.12;96.60;96194.59;5084004;28;20055;-62
2021/12/20 02:51:26;;;;;;;20.15;7.65;;;;;;;-0.01;95.91;96181.97;5084703;28;20060;-65
2021/12/20 02:53:55;;;;;;;28.35;9.93;;;;;;;-0.16;96.33;96141.69;5084586;28;20059;-61
2021/12/20 02:56:23;;;;;;;90.07;27.48;;;;;;;0.25;96.63;96196.34;5083214;28;20125;-61
2021/12/20 02:58:50;;;;;;;32.95;10.82;;;;;;;-0.47;98.09;96081.25;5084541;28;20521;-61
2021/12/20 03:01:17;;;;;;;83.07;25.13;;;;;;;0.19;97.83;96175.03;5084657;28;20515;-62
2021/12/20 03:03:45;;;;;;;42.30;13.43;;;;;;;0.48;96.88;96184.06;5084943;28;20055;-62
2021/12/20 03:06:18;;;;;;;25.50;10.15;;;;;;;0.59;96.36;96179.84;5084556;28;20052;-63
2021/12/20 03:08:49;;;;;;;130.32;33.80;;;;;;;0.50;96.66;96140.94;5082798;28;20137;-62
2021/12/20 03:11:16;;;;;;;54.88;16.85;;;;;;;0.11;95.90;96086.84;5084006;28;20066;-63
2021/12/20 03:13:46;;;;;;;20.05;7.78;;;;;;;-1.99;98.97;95875.50;5084115;28;20690;-64
2021/12/20 03:16:13;;;;;;;18.23;7.70;;;;;;;-0.02;100.00;96142.28;5084040;28;20452;-61
2021/12/20 03:18:39;;;;;;;60.80;18.33;;;;;;;0.05;100.00;96126.22;5084528;28;20067;-62
2021/12/20 03:21:06;;;;;;;51.60;15.07;;;;;;;0.52;99.80;96146.84;5082975;28;20062;-60
2021/12/20 03:23:33;;;;;;;42.53;15.32;;;;;;;-0.16;98.37;96112.53;5084090;28;20054;-63
2021/12/20 03:26:00;;;;;;;18.10;7.50;;;;;;;0.63;96.07;96190.88;5082390;28;20663;-63
2021/12/20 03:28:26;;;;;;;41.70;15.57;;;;;;;0.25;96.62;96109.19;5082425;28;20135;-61
2021/12/20 03:30:53;;;;;;;28.02;9.15;;;;;;;-0.30;96.21;96024.09;5082269;28;20051;-63
2021/12/20 03:33:20;;;;;;;16.17;6.35;;;;;;;0.57;95.74;96141.22;5083752;28;20059;-63
2021/12/20 03:35:47;;;;;;;12.18;5.75;;;;;;;0.63;97.20;96159.00;5081639;28;20533;-62
2021/12/20 03:38:13;;;;;;;21.38;6.80;;;;;;;0.68;96.18;96164.25;5083616;28;20048;-61
2021/12/20 03:40:40;;;;;;;16.70;6.43;;;;;;;0.64;96.94;96171.50;5084050;28;20118;-63
2021/12/20 03:43:10;;;;;;;6.97;2.63;;;;;;;-0.40;100.00;96135.97;5083712;28;20052;-64
2021/12/20 03:45:37;;;;;;;10.88;3.65;;;;;;;0.08;100.00;96141.91;5082514;28;20066;-62
2021/12/20 03:48:04;;;;;;;8.38;4.00;;;;;;;-0.37;100.00;96037.41;5063443;28;20810;-62
2021/12/20 03:50:31;;;;;;;16.63;8.48;;;;;;;0.52;100.00;96162.41;5063403;28;20048;-64
2021/12/20 03:52:58;;;;;;;37.13;14.25;;;;;;;0.69;100.00;96167.78;5063189;28;20067;-64
2021/12/20 03:55:24;;;;;;;33.63;12.02;;;;;;;0.70;99.23;96153.81;5063385;28;20045;-62
2021/12/20 03:57:51;;;;;;;34.83;10.27;;;;;;;0.56;98.59;96103.41;5063438;28;20056;-62
2021/12/20 04:00:18;;;;;;;28.85;12.35;;;;;;;0.96;98.89;96173.56;5063880;28;20503;-63
2021/12/20 04:02:46;;;;;;;30.05;10.55;;;;;;;1.06;97.11;96172.38;5063719;28;20056;-63
2021/12/20 04:05:14;;;;;;;36.95;13.55;;;;;;;1.10;97.29;96165.94;5063412;28;20051;-61
2021/12/20 04:07:41;;;;;;;60.63;26.10;;;;;;;0.83;97.80;96103.72;5063655;28;20065;-64
2021/12/20 04:10:08;;;;;;;55.45;22.65;;;;;;;1.12;97.01;96160.91;5063370;28;20056;-64
2021/12/20 04:12:35;;;;;;;24.60;9.38;;;;;;;0.69;100.00;96168.59;5063452;28;20067;-64
2021/12/20 04:15:05;;;;;;;35.45;13.45;;;;;;;0.98;100.00;96176.72;5063603;28;20052;-61
2021/12/20 04:17:32;;;;;;;42.80;17.60;;;;;;;0.82;100.00;96128.59;5062935;28;20064;-63
2021/12/20 04:19:59;;;;;;;44.22;17.35;;;;;;;1.01;99.48;96110.63;5063514;28;20526;-63
2021/12/20 04:22:25;;;;;;;44.70;16.15;;;;;;;1.42;98.90;96159.72;5063454;28;20053;-62
2021/12/20 04:24:52;;;;;;;53.75;22.55;;;;;;;1.55;98.25;96169.56;5061679;28;20078;-64
2021/12/20 04:27:19;;;;;;;19.75;9.07;;;;;;;1.12;98.06;96122.75;5063058;28;20063;-65
2021/12/20 04:29:46;;;;;;;28.77;11.85;;;;;;;1.53;98.03;96154.69;5062851;28;20064;-64
2021/12/20 04:32:13;;;;;;;13.10;4.43;;;;;;;1.06;100.00;96173.16;5062548;28;20048;-63
2021/12/20 04:34:40;;;;;;;10.73;4.65;;;;;;;0.89;100.00;96124.22;5061762;28;20056;-65
2021/12/20 04:37:08;;;;;;;16.83;7.13;;;;;;;1.29;100.00;96173.66;5063047;28;20060;-61
2021/12/20 04:39:35;;;;;;;20.73;10.63;;;;;;;1.43;100.00;96150.44;5061999;28;20651;-62
2021/12/20 04:42:02;;;;;;;22.80;10.50;;;;;;;1.44;100.00;96162.94;5062794;28;20052;-64
2021/12/20 04:44:29;;;;;;;35.83;14.38;;;;;;;1.50;100.00;96147.94;5062683;28;20053;-62
2021/12/20 04:46:56;;;;;;;46.60;18.75;;;;;;;1.62;100.00;96151.84;5076485;28;20067;-64
2021/12/20 04:49:24;;;;;;;20.20;7.10;;;;;;;1.45;100.00;96137.22;5085161;28;20055;-64
2021/12/20 04:51:53;;;;;;;19.67;8.55;;;;;;;1.06;100.00;96143.16;5086920;28;20044;-61
2021/12/20 04:54:20;;;;;;;29.23;9.77;;;;;;;1.37;100.00;96134.59;5086900;28;20083;-64
2021/12/20 04:56:47;;;;;;;27.60;10.13;;;;;;;1.39;99.59;96116.75;5085137;28;20055;-62
2021/12/20 04:59:14;;;;;;;29.48;11.75;;;;;;;1.42;99.00;96135.16;5087092;28;20538;-62
2021/12/20 05:01:41;;;;;;;30.00;13.07;;;;;;;1.83;98.63;96160.81;5086959;28;20056;-64
2021/12/20 05:04:08;;;;;;;78.18;28.20;;;;;;;2.01;98.14;96175.91;5086917;28;20058;-64
2021/12/20 05:06:34;;;;;;;132.93;41.08;;;;;;;1.75;97.76;96101.66;5086387;28;20060;-62
2021/12/20 05:09:04;;;;;;;141.15;46.53;;;;;;;1.85;96.68;96101.22;5086240;28;20522;-62
2021/12/20 05:11:34;;;;;;;83.22;31.75;;;;;;;2.37;96.39;96173.25;5086162;28;20051;-64
2021/12/20 05:14:02;;;;;;;57.65;22.92;;;;;;;2.43;96.26;96174.63;5086633;28;20044;-65
2021/12/20 05:16:29;;;;;;;44.40;16.90;;;;;;;2.31;95.05;96171.88;5086359;28;20052;-64
2021/12/20 05:18:56;;;;;;;128.15;46.03;;;;;;;2.65;92.74;96179.66;5084375;28;20058;-63
2021/12/20 05:21:23;;;;;;;46.05;19.55;;;;;;;3.04;89.74;96190.72;5085999;28;20056;-62
2021/12/20 05:23:51;;;;;;;72.18;27.27;;;;;;;3.05;88.95;96191.53;5086263;28;20234;-64
2021/12/20 05:26:18;;;;;;;108.28;46.97;;;;;;;3.03;89.23;96188.34;5085950;28;20058;-64
2021/12/20 05:28:45;;;;;;;120.78;70.07;;;;;;;2.92;89.47;96163.38;5084388;28;20048;-64
2021/12/20 05:31:13;;;;;;;60.42;30.30;;;;;;;3.11;89.14;96187.41;5085886;28;20128;-64
2021/12/20 05:33:40;;;;;;;41.38;22.48;;;;;;;3.15;87.55;96166.44;5101338;28;20048;-65
2021/12/20 05:36:06;;;;;;;48.88;17.23;;;;;;;3.21;88.51;96181.47;5084359;28;20058;-65
2021/12/20 05:38:46;;;;;;;34.53;15.13;;;;;;;3.03;91.04;96191.06;5086020;28;20052;-65
2021/12/20 05:41:13;;;;;;;49.17;20.23;;;;;;;3.11;89.64;96176.47;5084251;28;20064;-64
2021/12/20 05:43:40;;;;;;;23.60;9.10;;;;;;;3.24;87.46;96186.25;5086261;28;20052;-65
2021/12/20 05:46:10;;;;;;;21.15;8.75;;;;;;;3.37;84.91;96198.75;5080138;28;20051;-63
2021/12/20 05:48:37;;;;;;;29.60;12.43;;;;;;;2.84;86.44;96111.53;5065560;28;20063;-65
2021/12/20 05:51:04;;;;;;;21.88;10.38;;;;;;;3.49;84.03;96192.47;5066627;28;20048;-65
2021/12/20 05:53:30;;;;;;;19.65;7.38;;;;;;;3.65;82.94;96196.09;5065454;28;20514;-65
2021/12/20 05:55:57;;;;;;;15.63;7.25;;;;;;;3.65;82.79;96198.84;5064168;28;20060;-65
2021/12/20 05:58:24;;;;;;;22.08;9.60;;;;;;;3.42;81.46;96148.47;5065022;28;20394;-65
2021/12/20 06:00:51;;;;;;;15.55;8.02;;;;;;;3.30;82.06;96135.63;5065372;28;20090;-64
2021/12/20 06:03:18;;;;;;;18.92;9.82;;;;;;;3.74;82.80;96204.97;5063760;28;20083;-65
2021/12/20 06:05:45;;;;;;;13.10;4.93;;;;;;;3.81;81.11;96211.44;5065087;28;20056;-62
2021/12/20 06:08:11;;;;;;;9.68;3.72;;;;;;;3.90;80.93;96198.41;5063687;28;20594;-63
2021/12/20 06:10:39;;;;;;;16.27;6.13;;;;;;;3.92;79.87;96204.31;5065031;28;20518;-64
2021/12/20 06:13:06;;;;;;;18.55;8.90;;;;;;;3.92;80.62;96201.59;5064454;28;20511;-62
2021/12/20 06:15:33;;;;;;;17.50;8.48;;;;;;;3.89;81.18;96199.53;5064289;28;20049;-63
2021/12/20 06:18:00;;;;;;;12.88;6.88;;;;;;;3.87;81.82;96199.09;5062950;28;20110;-63
2021/12/20 06:20:27;;;;;;;16.38;7.95;;;;;;;3.30;82.04;96118.41;5062964;28;20582;-64
2021/12/20 06:22:54;;;;;;;16.88;8.07;;;;;;;3.96;80.59;96204.44;5064061;28;20056;-63
2021/12/20 06:25:20;;;;;;;24.63;11.20;;;;;;;3.94;82.16;96221.22;5063903;28;20052;-64
2021/12/20 06:27:47;;;;;;;18.35;7.38;;;;;;;3.83;82.86;96225.59;5064829;28;20458;-65
2021/12/20 06:30:14;;;;;;;10.57;5.18;;;;;;;3.39;81.26;96177.34;5063288;28;20442;-64
2021/12/20 06:32:43;;;;;;;36.55;11.77;;;;;;;3.48;81.13;96155.31;5064624;28;20522;-64
2021/12/20 06:35:30;;;;;;;29.73;12.73;;;;;;;3.95;81.22;96203.63;5063944;28;20054;-64
2021/12/20 06:38:00;;;;;;;21.88;10.23;;;;;;;3.91;80.70;96202.75;5064403;28;20055;-63
2021/12/20 06:40:29;;;;;;;14.27;6.95;;;;;;;3.96;81.53;96229.88;5062495;28;20098;-64
2021/12/20 06:42:56;;;;;;;31.75;14.77;;;;;;;3.73;79.56;96165.03;5064552;28;20052;-63
2021/12/20 06:45:23;;;;;;;26.60;12.00;;;;;;;4.22;77.55;96230.22;5063870;28;20048;-63
2021/12/20 06:47:51;;;;;;;42.78;17.60;;;;;;;4.37;76.80;96223.19;5081814;28;20071;-64
2021/12/20 06:50:18;;;;;;;25.50;12.93;;;;;;;2.51;77.51;95960.56;5081289;28;20055;-61
2021/12/20 06:52:44;;;;;;;50.42;18.55;;;;;;;4.07;75.67;96159.75;5065304;28;20083;-69
2021/12/20 06:55:11;;;;;;;135.77;40.58;;;;;;;4.56;75.81;96232.34;5065203;28;20045;-70
2021/12/20 06:57:39;;;;;;;56.53;21.65;;;;;;;4.50;76.61;96244.69;5075781;28;20507;-66
2021/12/20 07:00:08;;;;;;;49.55;19.00;;;;;;;3.44;79.01;96091.44;5071516;28;20048;-66
2021/12/20 07:02:35;;;;;;;51.75;20.25;;;;;;;4.45;78.86;96236.75;5079508;28;20135;-61
2021/12/20 07:05:02;;;;;;;49.30;21.42;;;;;;;3.29;78.74;96095.72;5081712;28;20094;-61
2021/12/20 07:07:29;;;;;;;46.65;18.67;;;;;;;4.63;77.59;96253.69;5080774;28;20044;-60
2021/12/20 07:09:56;;;;;;;47.72;19.38;;;;;;;4.76;77.55;96237.97;5069224;28;20048;-65
2021/12/20 07:12:23;;;;;;;40.42;18.45;;;;;;;3.49;77.10;96029.06;5064483;28;20067;-62
2021/12/20 07:14:51;;;;;;;22.63;8.70;;;;;;;4.60;71.41;96203.06;5068590;28;20044;-61
2021/12/20 07:17:19;;;;;;;11.85;5.47;;;;;;;4.13;69.26;96075.34;5078395;28;20106;-65
2021/12/20 07:19:46;;;;;;;7.03;3.72;;;;;;;4.09;68.33;96052.53;5072855;28;20044;-65
2021/12/20 07:22:13;;;;;;;7.68;3.58;;;;;;;5.47;66.39;96266.78;5078993;28;20084;-63
2021/12/20 07:24:40;;;;;;;7.53;2.88;;;;;;;4.80;64.58;96109.91;5080448;28;20055;-63
2021/12/20 07:27:09;;;;;;;7.68;2.85;;;;;;;5.07;65.15;96130.94;5081373;28;20078;-62
2021/12/20 07:29:39;;;;;;;3.97;2.05;;;;;;;5.94;61.45;96250.25;5079232;28;20578;-63
2021/12/20 07:32:06;;;;;;;4.07;1.95;;;;;;;6.01;62.39;96253.94;5080962;28;20066;-66
2021/12/20 07:34:33;;;;;;;13.20;4.95;;;;;;;6.01;62.19;96231.13;5065293;28;20084;-65
2021/12/20 07:36:59;;;;;;;6.20;2.40;;;;;;;6.13;60.63;96234.53;5065153;28;20044;-65
2021/12/20 07:39:26;;;;;;;7.15;2.33;;;;;;;5.73;61.55;96219.50;5084292;28;20094;-64
2021/12/20 07:41:53;;;;;;;3.72;1.80;;;;;;;5.60;61.26;96147.44;5071667;28;20538;-65
2021/12/20 07:44:21;;;;;;;12.38;3.08;;;;;;;5.28;60.37;96147.91;5073127;28;20045;-62
2021/12/20 07:46:49;;;;;;;11.82;4.10;;;;;;;5.76;58.34;96163.84;5078769;28;20052;-60
2021/12/20 07:49:16;;;;;;;27.63;6.45;;;;;;;5.59;59.00;96114.81;5080321;28;20040;-60
2021/12/20 07:51:43;;;;;;;11.32;4.43;;;;;;;6.42;59.13;96230.41;5072935;28;20581;-60
2021/12/20 07:54:10;;;;;;;12.82;4.05;;;;;;;5.89;59.00;96118.63;5067899;28;20060;-60
2021/12/20 07:56:36;;;;;;;5.80;3.08;;;;;;;6.50;58.86;96212.09;5068578;28;20048;-67
2021/12/20 07:59:04;;;;;;;13.23;4.25;;;;;;;6.59;59.44;96246.47;5069241;28;20131;-61
2021/12/20 08:01:34;;;;;;;12.23;4.85;;;;;;;6.14;60.19;96197.66;5082841;28;20056;-73
2021/12/20 08:04:01;;;;;;;12.82;4.18;;;;;;;5.74;59.97;96141.41;5078436;28;20049;-64
2021/12/20 08:06:28;;;;;;;7.50;2.45;;;;;;;5.41;59.02;96174.06;5061695;28;20143;-72
2021/12/20 08:08:56;;;;;;;11.35;4.00;;;;;;;6.18;60.16;96229.94;5063016;28;20088;-63
2021/12/20 08:11:23;;;;;;;4.53;2.25;;;;;;;6.39;59.90;96242.16;5062085;28;20052;-62
2021/12/20 08:13:50;;;;;;;4.78;1.95;;;;;;;3.93;59.08;95843.56;5073354;28;20497;-69
2021/12/20 08:16:19;;;;;;;3.50;1.58;;;;;;;6.57;58.84;96254.31;5076221;28;20060;-64
2021/12/20 08:18:47;;;;;;;7.03;2.17;;;;;;;5.86;58.56;96138.56;5068415;28;20059;-69
2021/12/20 08:21:15;;;;;;;3.35;1.73;;;;;;;5.84;58.87;96110.66;5076550;28;20503;-60
2021/12/20 08:23:43;;;;;;;3.88;1.10;;;;;;;6.81;56.92;96247.69;5066716;28;20054;-65
2021/12/20 08:26:10;;;;;;;4.05;1.17;;;;;;;5.37;55.83;95991.97;5067289;28;20136;-63
2021/12/20 08:28:38;;;;;;;3.65;1.40;;;;;;;7.05;56.76;96248.09;5084313;28;20152;-63
2021/12/20 08:31:06;;;;;;;4.75;2.13;;;;;;;7.04;56.10;96256.72;5080617;28;20122;-64
2021/12/20 08:33:34;;;;;;;2.65;1.85;;;;;;;6.82;54.97;96221.72;5066464;28;20139;-61
2021/12/20 08:36:03;;;;;;;1.70;1.00;;;;;;;5.88;52.71;96075.81;5070996;28;20534;-65
2021/12/20 08:38:31;;;;;;;2.35;1.15;;;;;;;5.98;52.42;96102.69;5066074;28;20084;-62
2021/12/20 08:40:59;;;;;;;11.82;4.20;;;;;;;6.47;52.74;96150.34;5070792;28;20048;-66
2021/12/20 08:43:27;;;;;;;1.45;0.90;;;;;;;7.20;53.65;96277.50;5083021;28;20146;-60
2021/12/20 08:45:54;;;;;;;2.33;1.20;;;;;;;7.03;54.58;96249.66;5070100;28;20040;-63
2021/12/20 08:48:21;;;;;;;3.05;1.25;;;;;;;7.27;54.68;96266.59;5081047;28;20159;-72
2021/12/20 08:50:48;;;;;;;2.40;1.30;;;;;;;7.30;55.10;96254.06;5075876;28;20411;-66
2021/12/20 08:53:14;;;;;;;2.45;1.13;;;;;;;6.83;54.84;96215.84;5079939;28;20056;-61
2021/12/20 08:55:41;;;;;;;4.72;1.35;;;;;;;7.36;55.45;96258.09;5083139;28;20551;-61
2021/12/20 08:58:08;;;;;;;1.35;0.90;;;;;;;7.28;54.27;96256.38;5084119;28;20079;-62
2021/12/20 09:00:36;;;;;;;3.13;1.20;;;;;;;7.28;55.53;96270.94;5082190;28;20072;-67
2021/12/20 09:03:04;;;;;;;2.40;1.33;;;;;;;6.44;54.57;96145.59;5081064;28;20059;-61
2021/12/20 09:05:33;;;;;;;6.43;1.25;;;;;;;6.98;55.40;96242.50;5083648;28;20059;-62
2021/12/20 09:08:01;;;;;;;2.78;1.13;;;;;;;6.95;54.81;96203.88;5081892;28;20059;-71
2021/12/20 09:10:32;;;;;;;1.58;0.93;;;;;;;7.46;54.02;96268.50;5086109;28;20496;-63
2021/12/20 09:13:01;;;;;;;2.42;1.13;;;;;;;7.08;54.95;96203.31;5086253;28;20047;-62
2021/12/20 09:15:29;;;;;;;5.45;1.40;;;;;;;7.50;55.35;96261.06;5085704;28;20580;-70
2021/12/20 09:17:56;;;;;;;4.72;1.85;;;;;;;6.99;53.83;96224.81;5084491;28;20062;-62
2021/12/20 09:20:25;;;;;;;1.63;0.80;;;;;;;7.35;55.32;96268.28;5085466;28;20142;-71
2021/12/20 09:22:53;;;;;;;1.63;0.85;;;;;;;7.42;54.24;96262.91;5085189;28;20143;-61
2021/12/20 09:25:24;;;;;;;1.67;0.90;;;;;;;5.74;55.04;96002.13;5085545;28;20056;-69
2021/12/20 09:27:53;;;;;;;1.83;1.23;;;;;;;6.35;54.89;96103.78;5085686;28;20473;-60
2021/12/20 09:30:22;;;;;;;1.92;0.90;;;;;;;7.25;55.07;96263.41;5085936;28;20094;-61
2021/12/20 09:32:49;;;;;;;2.70;1.13;;;;;;;4.76;54.73;95933.50;5084528;28;20048;-73
2021/12/20 09:35:16;;;;;;;2.30;1.00;;;;;;;7.30;54.03;96267.81;5084279;28;20507;-60
2021/12/20 09:37:46;;;;;;;1.23;0.70;;;;;;;7.29;53.84;96272.53;5083877;28;20106;-69
2021/12/20 09:40:14;;;;;;;1.77;0.98;;;;;;;7.23;54.19;96271.25;5085351;28;20121;-58
2021/12/20 09:42:51;;;;;;;4.70;0.90;;;;;;;7.16;55.06;96260.09;5085222;28;20118;-72
2021/12/20 09:45:22;;;;;;;1.08;0.70;;;;;;;6.74;54.86;96204.31;5081877;28;20119;-59
2021/12/20 09:47:50;;;;;;;1.70;0.80;;;;;;;7.05;55.73;96267.38;5067881;28;20529;-62
2021/12/20 09:50:18;;;;;;;2.05;0.80;;;;;;;6.90;54.80;96223.44;5085566;28;20051;-61
2021/12/20 09:52:45;;;;;;;1.63;0.88;;;;;;;3.77;54.28;95728.59;5083492;28;20048;-61
2021/12/20 09:55:15;;;;;;;1.80;0.93;;;;;;;7.07;54.29;96240.28;5085648;28;20489;-69
2021/12/20 09:57:43;;;;;;;1.52;0.70;;;;;;;7.25;54.62;96263.41;5083900;28;20055;-68
2021/12/20 10:00:13;;;;;;;1.13;0.70;;;;;;;7.31;55.45;96261.94;5085047;28;20579;-61
2021/12/20 10:02:45;;;;;;;1.77;1.00;;;;;;;7.38;54.48;96256.53;5084819;28;20527;-68
2021/12/20 10:05:13;;;;;;;2.80;0.90;;;;;;;7.51;54.19;96259.88;5083759;28;20076;-68
2021/12/20 10:07:41;;;;;;;1.17;0.85;;;;;;;4.78;53.32;95870.81;5084847;28;20594;-68
2021/12/20 10:10:10;;;;;;;1.48;0.60;;;;;;;7.63;52.65;96265.22;5084282;28;20141;-60
2021/12/20 10:12:48;;;;;;;0.75;0.70;;;;;;;7.18;52.98;96204.66;5085049;28;20052;-61
2021/12/20 10:15:15;;;;;;;1.88;0.70;;;;;;;7.79;52.74;96265.84;5083749;28;20079;-68
2021/12/20 10:17:55;;;;;;;0.85;0.57;;;;;;;6.97;52.26;96152.00;5068606;28;20053;-63
2021/12/20 10:20:35;;;;;;;0.70;0.70;;;;;;;7.18;52.52;96164.16;5064834;28;20103;-62
2021/12/20 10:23:11;;;;;;;1.60;0.73;;;;;;;7.99;52.28;96272.03;5064319;28;20202;-71
2021/12/20 10:25:40;;;;;;;1.00;0.65;;;;;;;7.79;52.60;96237.50;5063288;28;20592;-70
2021/12/20 10:28:33;;;;;;;1.00;0.63;;;;;;;7.04;51.94;96152.91;5064414;28;20049;-60
2021/12/20 10:31:18;;;;;;;2.38;0.98;;;;;;;8.25;53.15;96274.81;5062653;28;20056;-60
2021/12/20 10:33:57;;;;;;;0.82;0.80;;;;;;;7.96;52.01;96225.91;5064651;28;20143;-60
2021/12/20 10:36:25;;;;;;;0.93;0.65;;;;;;;8.23;51.66;96246.78;5063782;28;20501;-62
2021/12/20 10:38:56;;;;;;;1.02;0.75;;;;;;;7.74;51.24;96162.19;5063177;28;20048;-61
2021/12/20 10:41:34;;;;;;;1.15;0.80;;;;;;;8.59;51.77;96284.69;5061854;28;20052;-68
2021/12/20 10:44:15;;;;;;;1.45;0.80;;;;;;;8.40;50.57;96257.25;5066236;28;20415;-71
2021/12/20 10:46:58;;;;;;;1.13;0.60;;;;;;;8.71;50.61;96273.44;5078545;28;20052;-62
2021/12/20 10:49:27;;;;;;;1.02;0.80;;;;;;;8.84;51.14;96294.06;5076345;28;20121;-60
2021/12/20 10:51:54;;;;;;;0.88;0.82;;;;;;;8.61;50.87;96246.47;5065365;28;20153;-61
2021/12/20 10:54:25;;;;;;;0.98;0.80;;;;;;;8.10;50.11;96181.97;5071597;28;20173;-63
2021/12/20 10:56:53;;;;;;;1.42;0.80;;;;;;;8.81;51.64;96294.81;5066481;28;20644;-70
2021/12/20 10:59:25;;;;;;;0.88;0.70;;;;;;;8.56;50.39;96285.44;5081991;28;20055;-73
2021/12/20 11:04:57;;;;;;;2.10;0.80;;;;;;;7.62;51.03;96200.22;5064266;28;20060;-62
2021/12/20 11:10:04;;;;;;;0.65;0.60;;;;;;;8.01;51.70;96297.28;5072837;28;20131;-62
2021/12/20 11:12:33;;;;;;;2.75;0.82;;;;;;;7.71;52.72;96255.88;5075098;28;20138;-64
2021/12/20 11:15:18;;;;;;;0.63;0.60;;;;;;;7.71;51.60;96214.53;5077893;28;20084;-64
2021/12/20 11:17:46;;;;;;;1.05;0.60;;;;;;;7.84;51.24;96195.81;5065427;28;20113;-64
2021/12/20 11:20:21;;;;;;;0.90;0.60;;;;;;;8.44;50.27;96302.25;5061888;28;20080;-65
2021/12/20 11:22:48;;;;;;;1.63;1.08;;;;;;;8.58;50.53;96327.28;5064768;28;20048;-67
2021/12/20 11:25:15;;;;;;;0.70;0.70;;;;;;;7.94;50.89;96179.41;5071422;28;20039;-66
2021/12/20 11:27:53;;;;;;;0.60;0.60;;;;;;;8.05;51.34;96218.16;5079671;28;20048;-60
2021/12/20 11:30:22;;;;;;;1.80;0.90;;;;;;;8.53;51.93;96300.00;5080830;28;20048;-69
2021/12/20 11:32:50;;;;;;;1.52;0.77;;;;;;;8.04;52.48;96286.31;5080275;28;20392;-62
2021/12/20 11:35:22;;;;;;;1.17;0.73;;;;;;;8.05;52.90;96314.66;5075247;28;20158;-62
2021/12/20 11:37:49;;;;;;;0.70;0.70;;;;;;;7.82;53.41;96319.44;5067287;28;20646;-66
2021/12/20 11:40:19;;;;;;;5.78;1.13;;;;;;;7.49;55.80;96334.66;5061986;28;20101;-65
2021/12/20 11:42:48;;;;;;;6.53;2.53;;;;;;;7.42;57.03;96334.53;5077316;28;20083;-71
2021/12/20 11:45:17;;;;;;;1.65;0.90;;;;;;;6.68;58.72;96293.81;5066066;28;20101;-63
2021/12/20 11:48:05;;;;;;;6.18;1.98;;;;;;;6.94;59.44;96328.94;5083408;28;20048;-66
2021/12/20 11:50:37;;;;;;;2.17;1.30;;;;;;;6.68;59.56;96313.09;5082288;28;20526;-66
2021/12/20 11:53:12;;;;;;;2.47;1.48;;;;;;;6.71;60.99;96309.59;5078263;28;20125;-62
2021/12/20 11:55:48;;;;;;;2.65;0.90;;;;;;;6.81;59.12;96314.50;5074022;28;20068;-60